sensor_id;sensor_type;location;lat;lon;timestamp;P1;durP1;ratioP1;P2;durP2;ratioP2
23745;SDS011;12053;48.878;9.632;2022-07-23T00:00:43;8.93;;;4.97;;
23745;SDS011;12053;48.878;9.632;2022-07-23T00:03:10;7.05;;;4.88;;
23745;SDS011;12053;48.878;9.632;2022-07-23T00:05:37;5.40;;;4.60;;
23745;SDS011;12053;48.878;9.632;2022-07-23T00:08:05;5.65;;;5.05;;
23745;SDS011;12053;48.878;9.632;2022-07-23T00:10:36;5.78;;;4.95;;
23745;SDS011;12053;48.878;9.632;2022-07-23T00:13:03;7.03;;;5.00;;
23745;SDS011;12053;48.878;9.632;2022-07-23T00:15:30;6.10;;;4.85;;
23745;SDS011;12053;48.878;9.632;2022-07-23T00:17:57;6.85;;;4.47;;
23745;SDS011;12053;48.878;9.632;2022-07-23T00:20:24;5.10;;;4.60;;
23745;SDS011;12053;48.878;9.632;2022-07-23T00:22:53;6.20;;;4.43;;
23745;SDS011;12053;48.878;9.632;2022-07-23T00:25:21;4.88;;;4.35;;
23745;SDS011;12053;48.878;9.632;2022-07-23T00:27:57;6.65;;;4.82;;
23745;SDS011;12053;48.878;9.632;2022-07-23T00:30:24;7.25;;;4.50;;
23745;SDS011;12053;48.878;9.632;2022-07-23T00:32:53;5.20;;;4.70;;
23745;SDS011;12053;48.878;9.632;2022-07-23T00:35:23;7.47;;;4.43;;
23745;SDS011;12053;48.878;9.632;2022-07-23T00:37:50;5.43;;;4.10;;
23745;SDS011;12053;48.878;9.632;2022-07-23T00:40:18;5.55;;;4.65;;
23745;SDS011;12053;48.878;9.632;2022-07-23T00:42:45;5.40;;;4.50;;
23745;SDS011;12053;48.878;9.632;2022-07-23T00:45:12;4.88;;;4.40;;
23745;SDS011;12053;48.878;9.632;2022-07-23T00:47:39;5.85;;;4.18;;
23745;SDS011;12053;48.878;9.632;2022-07-23T00:50:07;6.18;;;4.45;;
23745;SDS011;12053;48.878;9.632;2022-07-23T00:52:35;6.47;;;4.40;;
23745;SDS011;12053;48.878;9.632;2022-07-23T00:55:06;6.68;;;4.20;;
23745;SDS011;12053;48.878;9.632;2022-07-23T00:57:33;5.55;;;3.85;;
23745;SDS011;12053;48.878;9.632;2022-07-23T01:00:01;3.90;;;3.50;;
23745;SDS011;12053;48.878;9.632;2022-07-23T01:02:28;4.35;;;3.95;;
23745;SDS011;12053;48.878;9.632;2022-07-23T01:04:55;4.72;;;4.18;;
23745;SDS011;12053;48.878;9.632;2022-07-23T01:07:22;5.88;;;3.90;;
23745;SDS011;12053;48.878;9.632;2022-07-23T01:09:53;4.68;;;4.00;;
23745;SDS011;12053;48.878;9.632;2022-07-23T01:12:21;7.22;;;4.03;;
23745;SDS011;12053;48.878;9.632;2022-07-23T01:14:58;7.35;;;4.18;;
23745;SDS011;12053;48.878;9.632;2022-07-23T01:17:25;6.63;;;4.03;;
23745;SDS011;12053;48.878;9.632;2022-07-23T01:19:53;4.38;;;3.97;;
23745;SDS011;12053;48.878;9.632;2022-07-23T01:22:20;5.18;;;4.60;;
23745;SDS011;12053;48.878;9.632;2022-07-23T01:24:47;7.28;;;4.32;;
23745;SDS011;12053;48.878;9.632;2022-07-23T01:27:14;5.57;;;4.47;;
23745;SDS011;12053;48.878;9.632;2022-07-23T01:29:44;5.25;;;4.18;;
23745;SDS011;12053;48.878;9.632;2022-07-23T01:32:11;5.03;;;4.13;;
23745;SDS011;12053;48.878;9.632;2022-07-23T01:34:38;5.18;;;4.68;;
23745;SDS011;12053;48.878;9.632;2022-07-23T01:37:07;5.07;;;4.55;;
23745;SDS011;12053;48.878;9.632;2022-07-23T01:39:34;5.22;;;4.38;;
23745;SDS011;12053;48.878;9.632;2022-07-23T01:42:01;4.75;;;3.92;;
23745;SDS011;12053;48.878;9.632;2022-07-23T01:44:28;4.93;;;3.90;;
23745;SDS011;12053;48.878;9.632;2022-07-23T01:46:56;4.57;;;3.95;;
23745;SDS011;12053;48.878;9.632;2022-07-23T01:49:23;3.65;;;3.35;;
23745;SDS011;12053;48.878;9.632;2022-07-23T01:51:50;3.80;;;3.50;;
23745;SDS011;12053;48.878;9.632;2022-07-23T01:54:27;5.18;;;3.47;;
23745;SDS011;12053;48.878;9.632;2022-07-23T01:56:55;3.65;;;3.30;;
23745;SDS011;12053;48.878;9.632;2022-07-23T01:59:23;4.00;;;3.60;;
23745;SDS011;12053;48.878;9.632;2022-07-23T02:01:50;4.20;;;3.15;;
23745;SDS011;12053;48.878;9.632;2022-07-23T02:04:17;3.33;;;3.03;;
23745;SDS011;12053;48.878;9.632;2022-07-23T02:06:45;4.82;;;3.25;;
23745;SDS011;12053;48.878;9.632;2022-07-23T02:09:12;5.97;;;3.67;;
23745;SDS011;12053;48.878;9.632;2022-07-23T02:11:39;4.10;;;3.45;;
23745;SDS011;12053;48.878;9.632;2022-07-23T02:14:07;4.32;;;3.20;;
23745;SDS011;12053;48.878;9.632;2022-07-23T02:16:34;5.20;;;3.42;;
23745;SDS011;12053;48.878;9.632;2022-07-23T02:19:02;4.07;;;3.50;;
23745;SDS011;12053;48.878;9.632;2022-07-23T02:21:30;4.15;;;3.50;;
23745;SDS011;12053;48.878;9.632;2022-07-23T02:23:57;3.67;;;3.38;;
23745;SDS011;12053;48.878;9.632;2022-07-23T02:26:24;4.13;;;3.35;;
23745;SDS011;12053;48.878;9.632;2022-07-23T02:28:51;3.50;;;3.20;;
23745;SDS011;12053;48.878;9.632;2022-07-23T02:31:22;3.78;;;3.40;;
23745;SDS011;12053;48.878;9.632;2022-07-23T02:33:49;4.13;;;3.20;;
23745;SDS011;12053;48.878;9.632;2022-07-23T02:36:16;4.00;;;3.53;;
23745;SDS011;12053;48.878;9.632;2022-07-23T02:38:43;4.05;;;3.67;;
23745;SDS011;12053;48.878;9.632;2022-07-23T02:41:10;6.75;;;3.97;;
23745;SDS011;12053;48.878;9.632;2022-07-23T02:43:38;3.90;;;3.47;;
23745;SDS011;12053;48.878;9.632;2022-07-23T02:46:05;4.85;;;3.85;;
23745;SDS011;12053;48.878;9.632;2022-07-23T02:48:32;4.63;;;3.70;;
23745;SDS011;12053;48.878;9.632;2022-07-23T02:51:00;4.15;;;3.75;;
23745;SDS011;12053;48.878;9.632;2022-07-23T02:53:27;4.10;;;3.70;;
23745;SDS011;12053;48.878;9.632;2022-07-23T02:55:54;5.93;;;3.75;;
23745;SDS011;12053;48.878;9.632;2022-07-23T02:58:22;8.20;;;4.18;;
23745;SDS011;12053;48.878;9.632;2022-07-23T03:00:49;4.70;;;4.28;;
23745;SDS011;12053;48.878;9.632;2022-07-23T03:03:16;7.05;;;4.10;;
23745;SDS011;12053;48.878;9.632;2022-07-23T03:05:44;7.07;;;4.28;;
23745;SDS011;12053;48.878;9.632;2022-07-23T03:08:11;5.50;;;3.88;;
23745;SDS011;12053;48.878;9.632;2022-07-23T03:10:38;6.03;;;4.00;;
23745;SDS011;12053;48.878;9.632;2022-07-23T03:13:05;4.30;;;3.90;;
23745;SDS011;12053;48.878;9.632;2022-07-23T03:15:33;4.25;;;3.85;;
23745;SDS011;12053;48.878;9.632;2022-07-23T03:18:00;4.68;;;4.28;;
23745;SDS011;12053;48.878;9.632;2022-07-23T03:20:27;5.20;;;4.25;;
23745;SDS011;12053;48.878;9.632;2022-07-23T03:22:54;5.68;;;4.38;;
23745;SDS011;12053;48.878;9.632;2022-07-23T03:25:21;7.60;;;4.47;;
23745;SDS011;12053;48.878;9.632;2022-07-23T03:27:49;6.28;;;4.40;;
23745;SDS011;12053;48.878;9.632;2022-07-23T03:30:16;5.03;;;4.53;;
23745;SDS011;12053;48.878;9.632;2022-07-23T03:32:43;7.15;;;4.80;;
23745;SDS011;12053;48.878;9.632;2022-07-23T03:35:10;4.60;;;4.20;;
23745;SDS011;12053;48.878;9.632;2022-07-23T03:37:38;5.70;;;4.25;;
23745;SDS011;12053;48.878;9.632;2022-07-23T03:40:05;5.03;;;4.32;;
23745;SDS011;12053;48.878;9.632;2022-07-23T03:42:33;4.70;;;4.28;;
23745;SDS011;12053;48.878;9.632;2022-07-23T03:45:00;4.40;;;4.00;;
23745;SDS011;12053;48.878;9.632;2022-07-23T03:47:27;6.28;;;4.20;;
23745;SDS011;12053;48.878;9.632;2022-07-23T03:49:54;5.95;;;4.30;;
23745;SDS011;12053;48.878;9.632;2022-07-23T03:52:22;7.50;;;4.28;;
23745;SDS011;12053;48.878;9.632;2022-07-23T03:54:49;5.05;;;4.22;;
23745;SDS011;12053;48.878;9.632;2022-07-23T03:57:16;5.88;;;4.72;;
23745;SDS011;12053;48.878;9.632;2022-07-23T03:59:43;4.57;;;4.18;;
23745;SDS011;12053;48.878;9.632;2022-07-23T04:02:10;7.30;;;4.50;;
23745;SDS011;12053;48.878;9.632;2022-07-23T04:04:38;4.75;;;4.10;;
23745;SDS011;12053;48.878;9.632;2022-07-23T04:07:05;5.50;;;4.20;;
23745;SDS011;12053;48.878;9.632;2022-07-23T04:09:33;6.93;;;4.70;;
23745;SDS011;12053;48.878;9.632;2022-07-23T04:12:01;7.25;;;5.13;;
23745;SDS011;12053;48.878;9.632;2022-07-23T04:14:28;4.95;;;4.47;;
23745;SDS011;12053;48.878;9.632;2022-07-23T04:16:55;6.47;;;5.10;;
23745;SDS011;12053;48.878;9.632;2022-07-23T04:19:22;5.43;;;4.93;;
23745;SDS011;12053;48.878;9.632;2022-07-23T04:21:49;7.03;;;5.18;;
23745;SDS011;12053;48.878;9.632;2022-07-23T04:24:16;5.50;;;5.00;;
23745;SDS011;12053;48.878;9.632;2022-07-23T04:26:44;5.75;;;4.90;;
23745;SDS011;12053;48.878;9.632;2022-07-23T04:29:11;6.50;;;5.38;;
23745;SDS011;12053;48.878;9.632;2022-07-23T04:31:38;6.72;;;5.05;;
23745;SDS011;12053;48.878;9.632;2022-07-23T04:34:06;5.85;;;4.90;;
23745;SDS011;12053;48.878;9.632;2022-07-23T04:36:33;7.85;;;4.65;;
23745;SDS011;12053;48.878;9.632;2022-07-23T04:39:00;5.25;;;4.70;;
23745;SDS011;12053;48.878;9.632;2022-07-23T04:41:28;4.85;;;4.35;;
23745;SDS011;12053;48.878;9.632;2022-07-23T04:43:55;4.78;;;4.30;;
23745;SDS011;12053;48.878;9.632;2022-07-23T04:46:22;4.80;;;4.30;;
23745;SDS011;12053;48.878;9.632;2022-07-23T04:48:50;5.68;;;4.80;;
23745;SDS011;12053;48.878;9.632;2022-07-23T04:51:17;5.68;;;5.05;;
23745;SDS011;12053;48.878;9.632;2022-07-23T04:53:44;4.90;;;4.38;;
23745;SDS011;12053;48.878;9.632;2022-07-23T04:56:11;4.93;;;4.53;;
23745;SDS011;12053;48.878;9.632;2022-07-23T04:58:38;5.40;;;4.80;;
23745;SDS011;12053;48.878;9.632;2022-07-23T05:01:06;5.55;;;4.38;;
23745;SDS011;12053;48.878;9.632;2022-07-23T05:03:33;5.53;;;4.65;;
23745;SDS011;12053;48.878;9.632;2022-07-23T05:06:00;5.43;;;4.80;;
23745;SDS011;12053;48.878;9.632;2022-07-23T05:08:29;6.75;;;5.15;;
23745;SDS011;12053;48.878;9.632;2022-07-23T05:10:56;6.78;;;4.22;;
23745;SDS011;12053;48.878;9.632;2022-07-23T05:13:23;5.90;;;5.03;;
23745;SDS011;12053;48.878;9.632;2022-07-23T05:15:50;6.88;;;4.78;;
23745;SDS011;12053;48.878;9.632;2022-07-23T05:18:18;5.75;;;4.65;;
23745;SDS011;12053;48.878;9.632;2022-07-23T05:20:45;4.82;;;4.43;;
23745;SDS011;12053;48.878;9.632;2022-07-23T05:23:12;5.30;;;4.80;;
23745;SDS011;12053;48.878;9.632;2022-07-23T05:25:39;5.43;;;4.43;;
23745;SDS011;12053;48.878;9.632;2022-07-23T05:28:07;5.25;;;4.75;;
23745;SDS011;12053;48.878;9.632;2022-07-23T05:30:34;5.53;;;4.53;;
23745;SDS011;12053;48.878;9.632;2022-07-23T05:33:01;5.25;;;4.75;;
23745;SDS011;12053;48.878;9.632;2022-07-23T05:35:28;6.55;;;4.75;;
23745;SDS011;12053;48.878;9.632;2022-07-23T05:37:55;5.32;;;4.82;;
23745;SDS011;12053;48.878;9.632;2022-07-23T05:40:22;5.78;;;4.55;;
23745;SDS011;12053;48.878;9.632;2022-07-23T05:42:50;9.88;;;5.00;;
23745;SDS011;12053;48.878;9.632;2022-07-23T05:45:17;5.40;;;4.78;;
23745;SDS011;12053;48.878;9.632;2022-07-23T05:47:45;7.00;;;5.20;;
23745;SDS011;12053;48.878;9.632;2022-07-23T05:50:13;6.78;;;5.55;;
23745;SDS011;12053;48.878;9.632;2022-07-23T05:52:40;7.72;;;4.88;;
23745;SDS011;12053;48.878;9.632;2022-07-23T05:55:08;6.53;;;5.28;;
23745;SDS011;12053;48.878;9.632;2022-07-23T05:57:35;6.25;;;5.47;;
23745;SDS011;12053;48.878;9.632;2022-07-23T06:00:03;7.05;;;5.63;;
23745;SDS011;12053;48.878;9.632;2022-07-23T06:02:31;5.72;;;5.22;;
23745;SDS011;12053;48.878;9.632;2022-07-23T06:04:58;6.35;;;5.40;;
23745;SDS011;12053;48.878;9.632;2022-07-23T06:07:25;7.47;;;5.53;;
23745;SDS011;12053;48.878;9.632;2022-07-23T06:09:52;7.05;;;5.68;;
23745;SDS011;12053;48.878;9.632;2022-07-23T06:12:19;6.22;;;5.20;;
23745;SDS011;12053;48.878;9.632;2022-07-23T06:14:47;6.88;;;5.78;;
23745;SDS011;12053;48.878;9.632;2022-07-23T06:17:15;5.10;;;4.70;;
23745;SDS011;12053;48.878;9.632;2022-07-23T06:19:43;5.93;;;5.32;;
23745;SDS011;12053;48.878;9.632;2022-07-23T06:22:10;5.85;;;5.35;;
23745;SDS011;12053;48.878;9.632;2022-07-23T06:24:37;10.45;;;7.90;;
23745;SDS011;12053;48.878;9.632;2022-07-23T06:27:04;11.80;;;10.13;;
23745;SDS011;12053;48.878;9.632;2022-07-23T06:29:31;12.52;;;7.25;;
23745;SDS011;12053;48.878;9.632;2022-07-23T06:31:58;6.60;;;5.55;;
23745;SDS011;12053;48.878;9.632;2022-07-23T06:34:26;5.57;;;5.05;;
23745;SDS011;12053;48.878;9.632;2022-07-23T06:36:53;7.35;;;5.13;;
23745;SDS011;12053;48.878;9.632;2022-07-23T06:39:20;6.90;;;5.47;;
23745;SDS011;12053;48.878;9.632;2022-07-23T06:41:47;5.72;;;4.97;;
23745;SDS011;12053;48.878;9.632;2022-07-23T06:44:17;6.43;;;5.03;;
23745;SDS011;12053;48.878;9.632;2022-07-23T06:46:44;7.18;;;5.43;;
23745;SDS011;12053;48.878;9.632;2022-07-23T06:49:12;5.10;;;4.60;;
23745;SDS011;12053;48.878;9.632;2022-07-23T06:51:39;6.55;;;4.60;;
23745;SDS011;12053;48.878;9.632;2022-07-23T06:54:06;6.47;;;4.90;;
23745;SDS011;12053;48.878;9.632;2022-07-23T06:56:33;7.50;;;4.82;;
23745;SDS011;12053;48.878;9.632;2022-07-23T06:59:00;5.53;;;4.80;;
23745;SDS011;12053;48.878;9.632;2022-07-23T07:01:29;5.15;;;4.65;;
23745;SDS011;12053;48.878;9.632;2022-07-23T07:03:56;4.95;;;4.43;;
23745;SDS011;12053;48.878;9.632;2022-07-23T07:06:23;6.85;;;4.90;;
23745;SDS011;12053;48.878;9.632;2022-07-23T07:08:50;5.15;;;4.72;;
23745;SDS011;12053;48.878;9.632;2022-07-23T07:11:17;5.20;;;4.65;;
23745;SDS011;12053;48.878;9.632;2022-07-23T07:13:45;10.45;;;4.90;;
23745;SDS011;12053;48.878;9.632;2022-07-23T07:16:12;5.47;;;5.00;;
23745;SDS011;12053;48.878;9.632;2022-07-23T07:18:39;5.47;;;4.80;;
23745;SDS011;12053;48.878;9.632;2022-07-23T07:21:06;6.15;;;4.53;;
23745;SDS011;12053;48.878;9.632;2022-07-23T07:23:34;6.75;;;4.97;;
23745;SDS011;12053;48.878;9.632;2022-07-23T07:26:01;7.20;;;5.60;;
23745;SDS011;12053;48.878;9.632;2022-07-23T07:28:28;6.93;;;5.30;;
23745;SDS011;12053;48.878;9.632;2022-07-23T07:30:55;6.82;;;5.10;;
23745;SDS011;12053;48.878;9.632;2022-07-23T07:33:22;6.50;;;4.88;;
23745;SDS011;12053;48.878;9.632;2022-07-23T07:35:50;8.43;;;5.40;;
23745;SDS011;12053;48.878;9.632;2022-07-23T07:38:17;8.18;;;5.03;;
23745;SDS011;12053;48.878;9.632;2022-07-23T07:40:44;9.60;;;6.20;;
23745;SDS011;12053;48.878;9.632;2022-07-23T07:43:11;8.60;;;6.47;;
23745;SDS011;12053;48.878;9.632;2022-07-23T07:45:38;7.70;;;6.07;;
23745;SDS011;12053;48.878;9.632;2022-07-23T07:48:06;9.38;;;6.30;;
23745;SDS011;12053;48.878;9.632;2022-07-23T07:50:33;12.52;;;6.90;;
23745;SDS011;12053;48.878;9.632;2022-07-23T07:53:00;8.82;;;6.25;;
23745;SDS011;12053;48.878;9.632;2022-07-23T07:55:28;8.05;;;6.50;;
23745;SDS011;12053;48.878;9.632;2022-07-23T07:57:55;7.40;;;6.45;;
23745;SDS011;12053;48.878;9.632;2022-07-23T08:00:22;7.50;;;6.10;;
23745;SDS011;12053;48.878;9.632;2022-07-23T08:02:51;10.68;;;6.70;;
23745;SDS011;12053;48.878;9.632;2022-07-23T08:05:19;9.05;;;6.88;;
23745;SDS011;12053;48.878;9.632;2022-07-23T08:07:53;9.07;;;6.60;;
23745;SDS011;12053;48.878;9.632;2022-07-23T08:10:20;9.88;;;6.57;;
23745;SDS011;12053;48.878;9.632;2022-07-23T08:12:48;29.70;;;7.07;;
23745;SDS011;12053;48.878;9.632;2022-07-23T08:15:17;6.93;;;6.25;;
23745;SDS011;12053;48.878;9.632;2022-07-23T08:17:45;7.40;;;6.18;;
23745;SDS011;12053;48.878;9.632;2022-07-23T08:20:13;8.85;;;6.03;;
23745;SDS011;12053;48.878;9.632;2022-07-23T08:23:26;7.18;;;6.13;;
23745;SDS011;12053;48.878;9.632;2022-07-23T08:25:28;8.80;;;7.15;;
23745;SDS011;12053;48.878;9.632;2022-07-23T08:27:57;9.23;;;6.25;;
23745;SDS011;12053;48.878;9.632;2022-07-23T08:30:24;7.93;;;6.40;;
23745;SDS011;12053;48.878;9.632;2022-07-23T08:35:29;8.13;;;5.68;;
23745;SDS011;12053;48.878;9.632;2022-07-23T08:37:57;9.38;;;5.60;;
23745;SDS011;12053;48.878;9.632;2022-07-23T08:40:26;5.85;;;5.25;;
23745;SDS011;12053;48.878;9.632;2022-07-23T08:42:53;8.50;;;5.78;;
23745;SDS011;12053;48.878;9.632;2022-07-23T08:45:21;6.93;;;6.05;;
23745;SDS011;12053;48.878;9.632;2022-07-23T08:47:52;8.68;;;5.72;;
23745;SDS011;12053;48.878;9.632;2022-07-23T08:50:20;6.72;;;5.75;;
23745;SDS011;12053;48.878;9.632;2022-07-23T08:52:50;6.80;;;6.13;;
23745;SDS011;12053;48.878;9.632;2022-07-23T08:55:18;8.68;;;6.80;;
23745;SDS011;12053;48.878;9.632;2022-07-23T08:57:47;8.82;;;7.03;;
23745;SDS011;12053;48.878;9.632;2022-07-23T09:00:15;8.88;;;6.63;;
23745;SDS011;12053;48.878;9.632;2022-07-23T09:02:43;7.90;;;6.82;;
23745;SDS011;12053;48.878;9.632;2022-07-23T09:05:10;9.88;;;7.18;;
23745;SDS011;12053;48.878;9.632;2022-07-23T09:10:36;8.40;;;6.95;;
23745;SDS011;12053;48.878;9.632;2022-07-23T09:13:27;10.45;;;7.00;;
23745;SDS011;12053;48.878;9.632;2022-07-23T09:15:55;7.53;;;6.22;;
23745;SDS011;12053;48.878;9.632;2022-07-23T09:18:57;15.25;;;7.25;;
23745;SDS011;12053;48.878;9.632;2022-07-23T09:21:26;7.45;;;6.40;;
23745;SDS011;12053;48.878;9.632;2022-07-23T09:34:06;6.78;;;6.15;;
23745;SDS011;12053;48.878;9.632;2022-07-23T09:36:33;7.47;;;5.90;;
23745;SDS011;12053;48.878;9.632;2022-07-23T09:39:00;7.50;;;6.70;;
23745;SDS011;12053;48.878;9.632;2022-07-23T09:41:33;10.15;;;6.18;;
23745;SDS011;12053;48.878;9.632;2022-07-23T09:44:11;5.95;;;5.32;;
23745;SDS011;12053;48.878;9.632;2022-07-23T09:46:57;9.43;;;6.28;;
23745;SDS011;12053;48.878;9.632;2022-07-23T09:49:24;7.47;;;6.30;;
23745;SDS011;12053;48.878;9.632;2022-07-23T09:51:55;6.20;;;5.60;;
23745;SDS011;12053;48.878;9.632;2022-07-23T09:54:30;13.68;;;11.68;;
23745;SDS011;12053;48.878;9.632;2022-07-23T09:57:02;6.43;;;5.82;;
23745;SDS011;12053;48.878;9.632;2022-07-23T09:59:33;6.70;;;5.70;;
23745;SDS011;12053;48.878;9.632;2022-07-23T10:02:01;10.23;;;6.10;;
23745;SDS011;12053;48.878;9.632;2022-07-23T10:04:29;6.10;;;5.50;;
23745;SDS011;12053;48.878;9.632;2022-07-23T10:06:57;6.18;;;5.55;;
23745;SDS011;12053;48.878;9.632;2022-07-23T10:09:26;7.45;;;5.75;;
23745;SDS011;12053;48.878;9.632;2022-07-23T10:11:55;6.70;;;5.85;;
23745;SDS011;12053;48.878;9.632;2022-07-23T10:14:25;6.82;;;5.80;;
23745;SDS011;12053;48.878;9.632;2022-07-23T10:16:53;7.13;;;5.78;;
23745;SDS011;12053;48.878;9.632;2022-07-23T10:19:21;5.93;;;5.32;;
23745;SDS011;12053;48.878;9.632;2022-07-23T10:21:55;8.13;;;6.38;;
23745;SDS011;12053;48.878;9.632;2022-07-23T10:24:27;6.50;;;5.90;;
23745;SDS011;12053;48.878;9.632;2022-07-23T10:32:08;8.13;;;5.90;;
23745;SDS011;12053;48.878;9.632;2022-07-23T10:37:30;5.72;;;5.13;;
23745;SDS011;12053;48.878;9.632;2022-07-23T10:40:12;5.97;;;5.45;;
23745;SDS011;12053;48.878;9.632;2022-07-23T10:42:40;6.00;;;4.90;;
23745;SDS011;12053;48.878;9.632;2022-07-23T10:45:31;5.80;;;5.10;;
23745;SDS011;12053;48.878;9.632;2022-07-23T10:47:56;5.28;;;4.78;;
23745;SDS011;12053;48.878;9.632;2022-07-23T10:58:04;4.57;;;4.18;;
23745;SDS011;12053;48.878;9.632;2022-07-23T11:00:31;4.80;;;4.40;;
23745;SDS011;12053;48.878;9.632;2022-07-23T11:03:00;4.43;;;4.03;;
23745;SDS011;12053;48.878;9.632;2022-07-23T11:05:44;4.60;;;4.20;;
23745;SDS011;12053;48.878;9.632;2022-07-23T11:10:42;5.00;;;4.25;;
23745;SDS011;12053;48.878;9.632;2022-07-23T11:31:53;6.22;;;4.40;;
23745;SDS011;12053;48.878;9.632;2022-07-23T11:36:58;9.77;;;4.63;;
23745;SDS011;12053;48.878;9.632;2022-07-23T11:39:25;5.30;;;4.18;;
23745;SDS011;12053;48.878;9.632;2022-07-23T11:41:53;4.93;;;4.45;;
23745;SDS011;12053;48.878;9.632;2022-07-23T11:44:27;4.93;;;4.53;;
23745;SDS011;12053;48.878;9.632;2022-07-23T11:47:02;5.00;;;4.13;;
23745;SDS011;12053;48.878;9.632;2022-07-23T11:49:30;4.35;;;4.00;;
23745;SDS011;12053;48.878;9.632;2022-07-23T11:54:32;7.15;;;4.78;;
23745;SDS011;12053;48.878;9.632;2022-07-23T11:57:05;8.18;;;4.35;;
23745;SDS011;12053;48.878;9.632;2022-07-23T11:59:33;5.07;;;4.57;;
23745;SDS011;12053;48.878;9.632;2022-07-23T12:02:03;5.05;;;4.55;;
23745;SDS011;12053;48.878;9.632;2022-07-23T12:04:40;10.27;;;5.35;;
23745;SDS011;12053;48.878;9.632;2022-07-23T12:07:27;6.18;;;5.30;;
23745;SDS011;12053;48.878;9.632;2022-07-23T12:09:55;5.18;;;4.70;;
23745;SDS011;12053;48.878;9.632;2022-07-23T12:12:23;5.32;;;4.82;;
23745;SDS011;12053;48.878;9.632;2022-07-23T12:14:57;5.65;;;5.13;;
23745;SDS011;12053;48.878;9.632;2022-07-23T12:17:29;5.22;;;4.72;;
23745;SDS011;12053;48.878;9.632;2022-07-23T12:20:00;5.38;;;4.70;;
23745;SDS011;12053;48.878;9.632;2022-07-23T12:22:33;4.68;;;4.28;;
23745;SDS011;12053;48.878;9.632;2022-07-23T12:25:03;4.63;;;4.17;;
23745;SDS011;12053;48.878;9.632;2022-07-23T12:27:31;5.32;;;4.30;;
23745;SDS011;12053;48.878;9.632;2022-07-23T12:29:58;5.40;;;4.47;;
23745;SDS011;12053;48.878;9.632;2022-07-23T12:32:27;4.90;;;4.40;;
23745;SDS011;12053;48.878;9.632;2022-07-23T12:35:07;4.88;;;4.47;;
23745;SDS011;12053;48.878;9.632;2022-07-23T12:37:36;6.65;;;4.53;;
23745;SDS011;12053;48.878;9.632;2022-07-23T12:42:48;5.82;;;4.47;;
23745;SDS011;12053;48.878;9.632;2022-07-23T12:45:16;5.82;;;4.18;;
23745;SDS011;12053;48.878;9.632;2022-07-23T12:50:40;5.32;;;4.35;;
23745;SDS011;12053;48.878;9.632;2022-07-23T12:53:12;6.25;;;4.80;;
23745;SDS011;12053;48.878;9.632;2022-07-23T12:55:49;6.63;;;4.90;;
23745;SDS011;12053;48.878;9.632;2022-07-23T12:58:53;5.40;;;4.88;;
23745;SDS011;12053;48.878;9.632;2022-07-23T13:04:17;19.27;;;6.53;;
23745;SDS011;12053;48.878;9.632;2022-07-23T13:06:55;46.45;;;10.93;;
23745;SDS011;12053;48.878;9.632;2022-07-23T13:09:25;17.13;;;7.55;;
23745;SDS011;12053;48.878;9.632;2022-07-23T13:11:58;5.10;;;4.60;;
23745;SDS011;12053;48.878;9.632;2022-07-23T13:14:25;5.05;;;4.43;;
23745;SDS011;12053;48.878;9.632;2022-07-23T13:16:53;5.57;;;4.97;;
23745;SDS011;12053;48.878;9.632;2022-07-23T13:19:22;8.00;;;4.80;;
23745;SDS011;12053;48.878;9.632;2022-07-23T13:21:51;7.43;;;4.70;;
23745;SDS011;12053;48.878;9.632;2022-07-23T13:24:18;7.72;;;4.63;;
23745;SDS011;12053;48.878;9.632;2022-07-23T13:26:45;5.47;;;4.90;;
23745;SDS011;12053;48.878;9.632;2022-07-23T13:29:13;7.90;;;4.80;;
23745;SDS011;12053;48.878;9.632;2022-07-23T13:32:00;5.97;;;5.40;;
23745;SDS011;12053;48.878;9.632;2022-07-23T13:34:36;6.07;;;5.18;;
23745;SDS011;12053;48.878;9.632;2022-07-23T13:37:06;8.27;;;5.35;;
23745;SDS011;12053;48.878;9.632;2022-07-23T13:39:33;7.80;;;5.13;;
23745;SDS011;12053;48.878;9.632;2022-07-23T13:42:04;7.00;;;5.15;;
23745;SDS011;12053;48.878;9.632;2022-07-23T13:44:33;7.05;;;5.25;;
23745;SDS011;12053;48.878;9.632;2022-07-23T13:47:01;6.43;;;5.25;;
23745;SDS011;12053;48.878;9.632;2022-07-23T13:49:29;5.75;;;4.60;;
23745;SDS011;12053;48.878;9.632;2022-07-23T13:51:57;5.35;;;4.85;;
23745;SDS011;12053;48.878;9.632;2022-07-23T13:54:24;7.57;;;5.80;;
23745;SDS011;12053;48.878;9.632;2022-07-23T13:56:54;5.20;;;4.70;;
23745;SDS011;12053;48.878;9.632;2022-07-23T13:59:22;6.53;;;5.53;;
23745;SDS011;12053;48.878;9.632;2022-07-23T14:01:52;6.70;;;5.80;;
23745;SDS011;12053;48.878;9.632;2022-07-23T14:04:39;6.85;;;5.40;;
23745;SDS011;12053;48.878;9.632;2022-07-23T14:07:07;7.35;;;5.75;;
23745;SDS011;12053;48.878;9.632;2022-07-23T14:09:34;6.20;;;5.57;;
23745;SDS011;12053;48.878;9.632;2022-07-23T14:12:02;8.13;;;5.47;;
23745;SDS011;12053;48.878;9.632;2022-07-23T14:14:30;7.43;;;5.75;;
23745;SDS011;12053;48.878;9.632;2022-07-23T14:16:57;8.70;;;5.35;;
23745;SDS011;12053;48.878;9.632;2022-07-23T14:19:26;6.32;;;5.30;;
23745;SDS011;12053;48.878;9.632;2022-07-23T14:21:56;9.07;;;6.07;;
23745;SDS011;12053;48.878;9.632;2022-07-23T14:24:23;7.50;;;6.05;;
23745;SDS011;12053;48.878;9.632;2022-07-23T14:26:56;9.60;;;5.70;;
23745;SDS011;12053;48.878;9.632;2022-07-23T14:29:24;7.13;;;6.43;;
23745;SDS011;12053;48.878;9.632;2022-07-23T14:31:51;7.03;;;6.38;;
23745;SDS011;12053;48.878;9.632;2022-07-23T14:34:19;6.50;;;5.63;;
23745;SDS011;12053;48.878;9.632;2022-07-23T14:36:53;7.15;;;5.72;;
23745;SDS011;12053;48.878;9.632;2022-07-23T14:39:20;7.25;;;5.95;;
23745;SDS011;12053;48.878;9.632;2022-07-23T14:41:48;6.70;;;6.03;;
23745;SDS011;12053;48.878;9.632;2022-07-23T14:44:15;6.53;;;5.65;;
23745;SDS011;12053;48.878;9.632;2022-07-23T14:46:42;7.05;;;6.20;;
23745;SDS011;12053;48.878;9.632;2022-07-23T14:49:10;6.97;;;6.30;;
23745;SDS011;12053;48.878;9.632;2022-07-23T14:51:37;8.27;;;6.25;;
23745;SDS011;12053;48.878;9.632;2022-07-23T14:54:04;6.68;;;5.97;;
23745;SDS011;12053;48.878;9.632;2022-07-23T14:56:33;9.13;;;5.70;;
23745;SDS011;12053;48.878;9.632;2022-07-23T14:59:05;6.82;;;6.15;;
23745;SDS011;12053;48.878;9.632;2022-07-23T15:01:33;8.15;;;6.55;;
23745;SDS011;12053;48.878;9.632;2022-07-23T15:04:01;6.90;;;6.13;;
23745;SDS011;12053;48.878;9.632;2022-07-23T15:06:48;6.93;;;6.18;;
23745;SDS011;12053;48.878;9.632;2022-07-23T15:09:15;8.27;;;6.03;;
23745;SDS011;12053;48.878;9.632;2022-07-23T15:11:43;7.68;;;6.47;;
23745;SDS011;12053;48.878;9.632;2022-07-23T15:14:10;7.88;;;6.10;;
23745;SDS011;12053;48.878;9.632;2022-07-23T15:16:51;6.82;;;6.18;;
23745;SDS011;12053;48.878;9.632;2022-07-23T15:19:19;6.50;;;5.85;;
23745;SDS011;12053;48.878;9.632;2022-07-23T15:21:46;8.02;;;6.07;;
23745;SDS011;12053;48.878;9.632;2022-07-23T15:24:14;6.65;;;6.05;;
23745;SDS011;12053;48.878;9.632;2022-07-23T15:26:41;8.23;;;5.93;;
23745;SDS011;12053;48.878;9.632;2022-07-23T15:29:09;6.82;;;6.20;;
23745;SDS011;12053;48.878;9.632;2022-07-23T15:31:36;8.00;;;5.88;;
23745;SDS011;12053;48.878;9.632;2022-07-23T15:34:03;7.70;;;5.82;;
23745;SDS011;12053;48.878;9.632;2022-07-23T15:36:32;7.78;;;5.70;;
23745;SDS011;12053;48.878;9.632;2022-07-23T15:39:01;7.50;;;5.68;;
23745;SDS011;12053;48.878;9.632;2022-07-23T15:41:29;8.43;;;5.93;;
23745;SDS011;12053;48.878;9.632;2022-07-23T15:43:56;7.88;;;5.90;;
23745;SDS011;12053;48.878;9.632;2022-07-23T15:46:24;6.82;;;6.13;;
23745;SDS011;12053;48.878;9.632;2022-07-23T15:48:52;7.28;;;5.70;;
23745;SDS011;12053;48.878;9.632;2022-07-23T15:51:20;6.57;;;5.97;;
23745;SDS011;12053;48.878;9.632;2022-07-23T15:53:48;8.38;;;6.65;;
23745;SDS011;12053;48.878;9.632;2022-07-23T15:56:15;6.45;;;5.85;;
23745;SDS011;12053;48.878;9.632;2022-07-23T15:58:44;7.05;;;6.00;;
23745;SDS011;12053;48.878;9.632;2022-07-23T16:01:11;6.40;;;5.80;;
23745;SDS011;12053;48.878;9.632;2022-07-23T16:03:39;6.38;;;5.68;;